This is the latest recevied weather packets stored in our database for station/object K4AGR-13. If no packets are shown the sender has not sent any weather packets the latest 10 day(s).
| Time | Temp. | Humidity | Pressure | Rain* | Wind** | Luminosity | Snow |
|---|---|---|---|---|---|---|---|
| 1777487457 | 30.56° C | 49% | 1013.4 hPa | 0 mm | - | 643 W/m² | - |
| 1777487154 | 29.44° C | 54% | 1013.6 hPa | 0 mm | - | 1156 W/m² | - |
| 1777486850 | 30.56° C | 50% | 1013.6 hPa | 0 mm | - | 488 W/m² | - |
| 1777486547 | 30.56° C | 50% | 1013.5 hPa | 0 mm | - | 1066 W/m² | - |
| 1777486245 | 30.56° C | 50% | 1013.7 hPa | 0 mm | - | 1106 W/m² | - |
| 1777485942 | 30° C | 50% | 1013.6 hPa | 0 mm | - | 991 W/m² | - |
| 1777485638 | 30° C | 50% | 1013.9 hPa | 0 mm | - | 1151 W/m² | - |
| 1777485333 | 30° C | 50% | 1013.8 hPa | 0 mm | - | 1269 W/m² | - |
| 1777485030 | 30° C | 52% | 1013.9 hPa | 0 mm | - | 1250 W/m² | - |
| 1777484727 | 30° C | 53% | 1014 hPa | 0 mm | - | 1069 W/m² | - |
| 1777484423 | 30° C | 53% | 1014.1 hPa | 0 mm | - | 1136 W/m² | - |
| 1777484120 | 30.56° C | 51% | 1014.1 hPa | 0 mm | - | 1066 W/m² | - |
| 1777483816 | 30° C | 52% | 1014.1 hPa | 0 mm | - | 1070 W/m² | - |
| 1777483514 | 30° C | 51% | 1014.5 hPa | 0 mm | - | 1102 W/m² | - |
| 1777483208 | 30° C | 51% | 1014.6 hPa | 0 mm | - | 1068 W/m² | - |
| 1777482905 | 30.56° C | 52% | 1014.5 hPa | 0 mm | - | 1048 W/m² | - |
| 1777482600 | 30.56° C | 51% | 1014.5 hPa | 0 mm | - | 1077 W/m² | - |
| 1777482298 | 30° C | 54% | 1014.9 hPa | 0 mm | - | 1102 W/m² | - |
| 1777481995 | 30° C | 54% | 1015.1 hPa | 0 mm | - | 1129 W/m² | - |
| 1777481693 | 30° C | 52% | 1015.2 hPa | 0 mm | - | 1064 W/m² | - |
| 1777481389 | 29.44° C | 53% | 1015.2 hPa | 0 mm | - | 1023 W/m² | - |
| 1777481086 | 29.44° C | 54% | 1015.2 hPa | 0 mm | - | 1019 W/m² | - |
| 1777480783 | 29.44° C | 54% | 1015.3 hPa | 0 mm | - | 1023 W/m² | - |
| 1777480479 | 28.33° C | 57% | 1015.6 hPa | 0 mm | - | 1049 W/m² | - |
| 1777480175 | 28.33° C | 56% | 1015.7 hPa | 0 mm | - | 1018 W/m² | - |
* Rain latest hour (hover to see other rain measurements)
** Current wind speed in m/s (hover to see current wind gust speed)